Time;durP1;ratioP1;P1;durP2;ratioP2;P2;SDS_P1;SDS_P2;PMS_P1;PMS_P2;Temp;Humidity;BMP_temperature;BMP_pressure;BME280_temperature;BME280_humidity;BME280_pressure;Samples;Min_cycle;Max_cycle;Signal;HPM_P1;HPM_P2
2022/11/18 00:00:51;;;;;;;2.00;1.60;;;16.90;68.80;17.90;98812.00;;;;5068500;28;20576;-50
2022/11/18 00:03:17;;;;;;;2.60;1.70;;;16.90;68.80;17.90;98806.00;;;;5068315;28;20168;-50
2022/11/18 00:05:42;;;;;;;1.87;1.53;;;16.80;68.80;17.90;98816.00;;;;5068145;28;20769;-51
2022/11/18 00:08:08;;;;;;;1.47;1.37;;;16.80;68.90;17.90;98818.00;;;;5068443;28;20196;-51
2022/11/18 00:10:37;;;;;;;2.00;1.37;;;16.80;68.80;17.90;98825.00;;;;5068194;28;20181;-51
2022/11/18 00:15:47;;;;;;;2.47;1.77;;;16.80;68.80;17.80;98826.00;;;;5069683;28;20290;-52
2022/11/18 00:18:13;;;;;;;1.97;1.60;;;16.80;68.80;17.80;98821.00;;;;5069545;28;20208;-50
2022/11/18 00:20:39;;;;;;;1.87;1.67;;;16.80;68.80;17.80;98817.00;;;;5068130;28;20545;-50
2022/11/18 00:23:04;;;;;;;3.00;1.63;;;16.80;68.80;17.80;98823.00;;;;5067522;28;20184;-51
2022/11/18 00:25:32;;;;;;;1.60;1.50;;;16.80;69.00;17.80;98826.00;;;;5067951;28;20220;-50
2022/11/18 00:27:58;;;;;;;1.87;1.60;;;16.70;68.90;17.80;98826.00;;;;5068160;28;20277;-50
2022/11/18 00:30:24;;;;;;;1.97;1.43;;;16.80;69.00;17.80;98816.00;;;;5068403;28;20168;-53
2022/11/18 00:32:49;;;;;;;1.63;1.50;;;16.70;68.90;17.80;98825.00;;;;5067849;28;20176;-51
2022/11/18 00:35:15;;;;;;;1.50;1.40;;;16.70;68.90;17.70;98803.00;;;;5068283;28;20190;-51
2022/11/18 00:37:41;;;;;;;2.73;1.87;;;16.70;69.00;17.70;98827.00;;;;5068223;28;20651;-50
2022/11/18 00:40:07;;;;;;;2.13;1.70;;;16.70;69.00;17.70;98821.00;;;;5067976;28;20215;-50
2022/11/18 00:42:51;;;;;;;2.03;1.50;;;16.70;69.10;17.70;98831.00;;;;5067221;28;20231;-51
2022/11/18 00:45:20;;;;;;;1.60;1.50;;;16.70;69.20;17.70;98823.00;;;;5067651;28;20186;-51
2022/11/18 00:47:46;;;;;;;1.70;1.50;;;16.70;69.20;17.70;98835.00;;;;5049842;28;20176;-50
2022/11/18 00:50:12;;;;;;;1.70;1.57;;;16.70;69.20;17.70;98839.00;;;;5067654;28;20202;-51
2022/11/18 00:52:37;;;;;;;1.47;1.37;;;16.70;69.30;17.70;98839.00;;;;5067637;28;20723;-51
2022/11/18 00:55:04;;;;;;;1.43;1.33;;;16.60;69.20;17.70;98846.00;;;;5067885;28;20271;-50
2022/11/18 00:57:29;;;;;;;1.70;1.60;;;16.60;69.20;17.70;98852.00;;;;5068018;28;20656;-51
2022/11/18 00:59:55;;;;;;;1.63;1.53;;;16.70;69.30;17.70;98848.00;;;;5067584;28;20224;-52
2022/11/18 01:02:21;;;;;;;1.40;1.30;;;16.60;69.30;17.70;98857.00;;;;5070215;28;20183;-53
2022/11/18 01:04:46;;;;;;;1.53;1.37;;;16.70;69.30;17.60;98849.00;;;;5070015;28;20234;-50
2022/11/18 01:07:12;;;;;;;1.60;1.43;;;16.60;69.20;17.60;98853.00;;;;5050122;28;20249;-50
2022/11/18 01:09:38;;;;;;;1.70;1.60;;;16.60;69.30;17.60;98854.00;;;;5067688;28;20790;-50
2022/11/18 01:14:48;;;;;;;3.00;1.43;;;16.60;69.40;17.60;98843.00;;;;5067791;28;20209;-50
2022/11/18 01:17:14;;;;;;;1.83;1.50;;;16.60;69.40;17.60;98848.00;;;;5067876;28;20190;-51
2022/11/18 01:19:39;;;;;;;1.40;1.30;;;16.60;69.40;17.60;98847.00;;;;5067720;28;20199;-51
2022/11/18 01:22:05;;;;;;;1.60;1.50;;;16.60;69.40;17.60;98855.00;;;;5067302;28;20204;-52
2022/11/18 01:24:31;;;;;;;1.50;1.40;;;16.70;69.40;17.70;98868.00;;;;5067926;28;20203;-51
2022/11/18 01:26:58;;;;;;;1.50;1.30;;;16.70;69.20;17.70;98855.00;;;;5067516;28;20730;-51
2022/11/18 01:29:23;;;;;;;1.73;1.50;;;16.80;69.10;17.70;98858.00;;;;5068316;28;20261;-50
2022/11/18 01:31:49;;;;;;;1.70;1.60;;;16.90;68.90;17.80;98864.00;;;;5069185;28;20213;-51
2022/11/18 01:34:15;;;;;;;1.60;1.50;;;17.00;68.90;17.60;98868.00;;;;5068520;28;20206;-51
2022/11/18 01:36:40;;;;;;;1.63;1.53;;;17.00;68.80;17.80;98871.00;;;;5068157;28;20182;-51
2022/11/18 01:39:06;;;;;;;1.67;1.40;;;17.00;68.60;17.90;98873.00;;;;5070192;28;20564;-51
2022/11/18 01:41:32;;;;;;;1.47;1.37;;;17.10;68.70;17.90;98873.00;;;;5072313;28;20192;-51
2022/11/18 01:44:00;;;;;;;1.50;1.40;;;17.10;68.70;17.90;98881.00;;;;5068622;28;20182;-51
2022/11/18 01:46:28;;;;;;;1.57;1.43;;;17.10;68.60;18.00;98881.00;;;;5067811;28;20167;-51
2022/11/18 01:48:59;;;;;;;1.50;1.40;;;17.20;68.70;18.00;98875.00;;;;5067377;28;20501;-49
2022/11/18 01:51:36;;;;;;;1.80;1.70;;;17.20;68.60;18.00;98855.00;;;;5033645;28;20518;-50
2022/11/18 01:54:08;;;;;;;1.50;1.30;;;17.20;68.60;18.00;98882.00;;;;5034370;28;20170;-51
2022/11/18 01:56:43;;;;;;;1.50;1.40;;;17.20;68.60;18.10;98880.00;;;;5037563;28;20158;-51
2022/11/18 01:59:14;;;;;;;1.70;1.60;;;17.20;68.60;18.10;98880.00;;;;5070697;28;20281;-51
2022/11/18 02:01:40;;;;;;;1.40;1.30;;;17.20;68.60;18.10;98881.00;;;;5036503;28;20245;-50
2022/11/18 02:04:06;;;;;;;1.47;1.37;;;17.30;68.80;18.10;98888.00;;;;5070468;28;20590;-52
2022/11/18 02:06:32;;;;;;;1.60;1.50;;;17.20;68.70;18.10;98885.00;;;;5036303;28;20194;-52
2022/11/18 02:08:58;;;;;;;1.50;1.40;;;17.20;68.80;18.10;98886.00;;;;5036579;28;20188;-51
2022/11/18 02:14:08;;;;;;;1.60;1.50;;;17.30;69.00;18.20;98894.00;;;;5070366;28;20200;-50
2022/11/18 02:17:03;;;;;;;1.50;1.40;;;17.20;68.80;18.20;98906.00;;;;5035940;28;20191;-51
2022/11/18 02:19:54;;;;;;;1.50;1.27;;;17.30;68.90;18.20;98902.00;;;;5054707;28;20218;-50
2022/11/18 02:22:50;;;;;;;1.30;1.20;;;17.30;69.00;18.20;98910.00;;;;5052421;28;20234;-49
2022/11/18 02:25:23;;;;;;;1.63;1.30;;;17.30;69.00;18.20;98910.00;;;;5069796;28;20684;-50
2022/11/18 02:28:06;;;;;;;1.60;1.37;;;17.30;69.00;18.20;98908.00;;;;5054993;28;20216;-51
2022/11/18 02:30:33;;;;;;;1.40;1.30;;;17.30;68.90;18.20;98899.00;;;;5070883;28;20168;-52
2022/11/18 02:33:07;;;;;;;1.50;1.40;;;17.30;69.00;18.20;98907.00;;;;5035902;28;20169;-53
2022/11/18 02:35:45;;;;;;;1.50;1.40;;;17.30;69.00;18.20;98906.00;;;;5052197;28;20197;-52
2022/11/18 02:38:20;;;;;;;1.53;1.43;;;17.30;69.10;18.20;98918.00;;;;5052127;28;20176;-51
2022/11/18 02:40:52;;;;;;;1.47;1.37;;;17.30;69.20;18.20;98921.00;;;;5052161;28;20240;-49
2022/11/18 02:43:26;;;;;;;1.30;1.20;;;17.30;69.20;18.20;98912.00;;;;5036593;28;20177;-50
2022/11/18 02:45:55;;;;;;;1.27;1.20;;;17.30;69.00;18.00;98917.00;;;;5039594;28;20189;-51
2022/11/18 02:48:22;;;;;;;1.17;1.07;;;17.30;69.00;18.00;98897.00;;;;5020898;28;20180;-51
2022/11/18 02:50:48;;;;;;;1.27;1.17;;;17.40;69.00;18.30;98921.00;;;;5019243;28;20592;-51
2022/11/18 02:53:15;;;;;;;1.30;1.20;;;17.40;68.90;18.30;98922.00;;;;5035436;28;20180;-51
2022/11/18 02:55:41;;;;;;;1.67;1.40;;;17.40;69.00;18.30;98928.00;;;;5019909;28;20653;-51
2022/11/18 02:58:07;;;;;;;1.57;1.40;;;17.40;69.00;18.30;98926.00;;;;5035546;28;20173;-50
2022/11/18 03:00:32;;;;;;;1.57;1.47;;;17.30;69.00;18.30;98923.00;;;;5070583;28;20176;-52
2022/11/18 03:02:59;;;;;;;1.60;1.50;;;17.30;69.10;18.30;98933.00;;;;5051536;28;20185;-50
2022/11/18 03:05:38;;;;;;;1.50;1.40;;;17.30;69.20;18.30;98931.00;;;;5069247;28;20200;-50
2022/11/18 03:08:13;;;;;;;1.57;1.47;;;17.30;69.20;18.30;98940.00;;;;5020974;28;20173;-50
2022/11/18 03:10:53;;;;;;;1.10;1.10;;;17.30;69.20;18.30;98947.00;;;;5051881;28;20256;-52
2022/11/18 03:14:19;;;;;;;1.47;1.37;;;17.40;69.20;18.30;98943.00;;;;5035020;28;20157;-51
2022/11/18 03:17:12;;;;;;;1.00;1.00;;;17.40;69.10;18.30;98942.00;;;;5052550;28;20774;-51
2022/11/18 03:20:06;;;;;;;1.37;1.30;;;17.40;69.00;18.30;98943.00;;;;5037853;28;20204;-51
2022/11/18 03:22:43;;;;;;;1.50;1.40;;;17.40;69.00;18.30;98944.00;;;;5069063;28;20176;-52
2022/11/18 03:25:41;;;;;;;1.30;1.20;;;17.40;69.00;18.30;98957.00;;;;5019496;28;20669;-52
2022/11/18 03:28:46;;;;;;;1.33;1.23;;;17.40;69.10;18.30;98955.00;;;;5039142;28;20197;-52
2022/11/18 03:31:23;;;;;;;1.30;1.20;;;17.30;69.20;18.30;98955.00;;;;5049344;28;20610;-50
2022/11/18 03:33:58;;;;;;;1.23;1.13;;;17.40;69.30;18.30;98972.00;;;;5020151;28;20179;-51
2022/11/18 03:36:26;;;;;;;1.03;1.03;;;17.40;69.30;18.30;98957.00;;;;5050874;28;20180;-51
2022/11/18 03:38:54;;;;;;;1.40;1.30;;;17.40;69.30;18.30;98964.00;;;;5051507;28;20205;-51
2022/11/18 03:41:20;;;;;;;1.40;1.30;;;17.40;69.30;18.30;98968.00;;;;5018183;28;20175;-50
2022/11/18 03:44:16;;;;;;;1.23;1.13;;;17.40;69.30;18.30;98980.00;;;;5017811;28;20174;-51
2022/11/18 03:46:49;;;;;;;1.53;1.43;;;17.40;69.20;18.30;98987.00;;;;5044942;28;20923;-51
2022/11/18 03:49:35;;;;;;;1.40;1.30;;;17.40;69.20;18.30;98993.00;;;;5030324;28;20657;-50
2022/11/18 03:52:17;;;;;;;1.30;1.20;;;17.50;69.30;18.40;98994.00;;;;5066803;28;20176;-51
2022/11/18 03:54:44;;;;;;;2.17;1.40;;;17.50;69.20;18.30;98991.00;;;;5033891;28;20730;-51
2022/11/18 03:57:19;;;;;;;1.53;1.43;;;17.40;69.10;18.30;98993.00;;;;5050852;28;20177;-51
2022/11/18 04:00:02;;;;;;;1.30;1.20;;;17.40;69.30;18.30;98993.00;;;;5051132;28;20196;-50
2022/11/18 04:02:28;;;;;;;1.30;1.20;;;17.40;69.20;18.30;98993.00;;;;5037168;28;20746;-50
2022/11/18 04:04:55;;;;;;;1.37;1.27;;;17.40;69.20;18.30;99005.00;;;;5033449;28;20279;-50
2022/11/18 04:07:51;;;;;;;1.20;1.10;;;17.40;69.30;18.30;98999.00;;;;5050518;28;20215;-50
2022/11/18 04:10:25;;;;;;;1.40;1.30;;;17.40;69.30;18.30;99004.00;;;;5050717;28;20172;-51
2022/11/18 04:13:22;;;;;;;1.40;1.30;;;17.40;69.30;18.30;98998.00;;;;5050392;28;20192;-51
2022/11/18 04:15:47;;;;;;;1.33;1.23;;;17.30;69.20;18.30;99017.00;;;;5048543;28;20220;-51
2022/11/18 04:18:13;;;;;;;1.40;1.30;;;17.40;69.30;18.30;99024.00;;;;5066257;28;20561;-51
2022/11/18 04:20:39;;;;;;;1.50;1.40;;;17.30;69.20;18.30;99021.00;;;;5068001;28;20176;-51
2022/11/18 04:23:05;;;;;;;1.17;1.17;;;17.30;69.20;18.30;98949.00;;;;5068458;28;20248;-51
2022/11/18 04:25:31;;;;;;;1.40;1.30;;;17.30;69.20;18.30;99013.00;;;;5068717;28;20198;-51
2022/11/18 04:27:57;;;;;;;2.00;1.60;;;17.30;69.40;18.30;99027.00;;;;5067950;28;20228;-50
2022/11/18 04:30:22;;;;;;;1.93;1.37;;;17.30;69.50;18.30;99023.00;;;;5067199;28;20517;-50
2022/11/18 04:32:48;;;;;;;1.10;1.10;;;17.30;69.50;18.30;99028.00;;;;5067783;28;20177;-51
2022/11/18 04:35:14;;;;;;;1.50;1.40;;;17.30;69.60;18.30;99026.00;;;;5068764;28;20224;-50
2022/11/18 04:37:40;;;;;;;1.30;1.20;;;17.30;69.50;18.30;99039.00;;;;5068985;28;20175;-50
2022/11/18 04:40:06;;;;;;;1.47;1.23;;;17.20;69.50;18.30;99039.00;;;;5068404;28;20659;-51
2022/11/18 04:42:32;;;;;;;1.87;1.60;;;17.30;69.80;18.30;99038.00;;;;5067735;28;20211;-51
2022/11/18 04:44:58;;;;;;;1.93;1.60;;;17.30;70.00;18.30;99042.00;;;;5048840;28;20233;-51
2022/11/18 04:47:24;;;;;;;3.33;1.70;;;17.30;70.00;18.30;99048.00;;;;5068877;28;20174;-51
2022/11/18 04:49:49;;;;;;;3.80;1.73;;;17.30;70.00;18.30;99057.00;;;;5069031;28;20183;-51
2022/11/18 04:52:15;;;;;;;3.80;1.83;;;17.20;70.00;18.30;99050.00;;;;5068978;28;20171;-51
2022/11/18 04:54:41;;;;;;;2.37;1.60;;;17.20;70.00;18.20;99056.00;;;;5069115;28;20539;-51
2022/11/18 04:57:06;;;;;;;2.60;1.80;;;17.20;70.00;18.20;99051.00;;;;5068747;28;20175;-50
2022/11/18 04:59:32;;;;;;;2.07;1.33;;;17.20;69.90;18.20;99055.00;;;;5068615;28;20666;-51
2022/11/18 05:01:59;;;;;;;1.70;1.60;;;17.10;69.80;18.20;99055.00;;;;5068629;28;20637;-51
2022/11/18 05:04:29;;;;;;;2.20;1.50;;;17.20;70.00;18.20;99060.00;;;;5051073;28;20218;-50
2022/11/18 05:06:54;;;;;;;1.37;1.20;;;17.10;69.90;18.20;99055.00;;;;5069227;28;20197;-51
2022/11/18 05:09:20;;;;;;;1.50;1.40;;;17.10;69.80;18.20;99057.00;;;;5068403;28;20693;-51
2022/11/18 05:14:30;;;;;;;1.60;1.43;;;17.10;69.90;18.20;99066.00;;;;5063940;28;20217;-53
2022/11/18 05:16:57;;;;;;;2.83;1.50;;;17.10;69.90;18.10;99079.00;;;;5047604;28;20559;-50
2022/11/18 05:19:23;;;;;;;1.63;1.53;;;17.10;70.00;18.10;99076.00;;;;5047553;28;20218;-52
2022/11/18 05:21:49;;;;;;;2.43;1.60;;;17.10;70.00;18.10;99083.00;;;;5046505;28;20187;-53
2022/11/18 05:24:14;;;;;;;1.73;1.50;;;17.00;69.90;18.10;99085.00;;;;5048214;28;20262;-52
2022/11/18 05:26:40;;;;;;;2.57;1.60;;;17.10;70.00;18.10;99091.00;;;;5046750;28;20202;-50
2022/11/18 05:29:06;;;;;;;2.73;1.80;;;17.00;69.80;18.10;99083.00;;;;5051621;28;20638;-50
2022/11/18 05:31:32;;;;;;;5.60;2.00;;;17.00;69.90;18.10;99092.00;;;;5051018;28;20177;-51
2022/11/18 05:33:57;;;;;;;3.73;1.87;;;17.00;69.90;18.10;99085.00;;;;5051138;28;20220;-49
2022/11/18 05:36:23;;;;;;;4.43;1.70;;;17.00;69.90;18.10;99088.00;;;;5052186;28;20212;-50
2022/11/18 05:38:49;;;;;;;5.87;1.70;;;17.00;69.90;18.10;99095.00;;;;5050319;28;20204;-50
2022/11/18 05:44:00;;;;;;;3.30;1.73;;;16.90;69.70;18.00;99088.00;;;;5051475;28;20158;-50
2022/11/18 05:46:26;;;;;;;2.53;1.73;;;16.90;69.70;18.00;99094.00;;;;5050669;28;20536;-50
2022/11/18 05:48:51;;;;;;;3.60;1.77;;;16.90;69.60;18.00;99108.00;;;;5051801;28;20166;-50
2022/11/18 05:51:17;;;;;;;5.87;1.90;;;16.90;69.60;18.00;99113.00;;;;5051378;28;20672;-51
2022/11/18 05:53:43;;;;;;;4.33;1.93;;;16.90;69.50;18.00;99113.00;;;;5051303;28;20199;-54
2022/11/18 05:56:26;;;;;;;4.10;1.90;;;16.90;69.60;18.00;99117.00;;;;5050586;28;20660;-50
2022/11/18 05:58:52;;;;;;;3.30;1.80;;;16.90;69.50;18.00;99123.00;;;;5050092;28;20248;-50
2022/11/18 06:01:23;;;;;;;6.13;2.23;;;16.90;69.50;18.00;99134.00;;;;5051231;28;20224;-51
2022/11/18 06:03:49;;;;;;;2.27;1.77;;;16.90;69.60;18.00;99126.00;;;;5033385;28;20247;-51
2022/11/18 06:06:16;;;;;;;4.23;2.10;;;16.90;69.80;17.90;99124.00;;;;5033509;28;20170;-51
2022/11/18 06:08:48;;;;;;;3.87;1.80;;;16.90;70.10;18.00;99136.00;;;;5033392;28;20174;-49
2022/11/18 06:11:14;;;;;;;3.07;1.90;;;16.90;70.10;18.00;99133.00;;;;5050881;28;20225;-51
2022/11/18 06:13:49;;;;;;;4.87;2.00;;;16.90;70.10;17.90;99133.00;;;;5049655;28;20234;-52
2022/11/18 06:16:20;;;;;;;5.03;1.90;;;16.90;70.00;17.70;99140.00;;;;5033577;28;20651;-51
2022/11/18 06:18:45;;;;;;;2.20;1.80;;;16.90;70.10;17.90;99137.00;;;;5049920;28;20680;-51
2022/11/18 06:21:11;;;;;;;4.60;2.00;;;16.90;70.20;17.90;99151.00;;;;5051097;28;20167;-50
2022/11/18 06:23:37;;;;;;;2.87;2.10;;;16.80;70.20;17.90;99152.00;;;;5054488;28;20173;-51
2022/11/18 06:26:03;;;;;;;4.47;1.80;;;16.80;70.30;17.90;99152.00;;;;5071190;28;20255;-49
2022/11/18 06:28:29;;;;;;;4.80;1.93;;;16.80;70.30;17.90;99157.00;;;;5053669;28;20531;-51
2022/11/18 06:30:54;;;;;;;5.13;2.00;;;16.80;70.20;17.90;99158.00;;;;5055053;28;20805;-51
2022/11/18 06:33:20;;;;;;;3.33;1.80;;;16.80;70.20;17.90;99168.00;;;;5070316;28;20169;-51
2022/11/18 06:35:46;;;;;;;2.77;1.80;;;16.80;70.20;17.90;99163.00;;;;5070655;28;20266;-51
2022/11/18 06:38:11;;;;;;;4.33;1.87;;;16.80;70.20;17.90;99171.00;;;;5071693;28;20781;-51
2022/11/18 06:40:37;;;;;;;4.17;1.90;;;16.80;70.20;17.90;99168.00;;;;5070245;28;20171;-50
2022/11/18 06:48:43;;;;;;;2.03;1.77;;;16.80;70.20;17.80;99193.00;;;;5070828;28;20165;-51
2022/11/18 06:51:08;;;;;;;3.03;2.00;;;16.70;70.00;17.80;99197.00;;;;5070358;28;20176;-51
2022/11/18 06:53:34;;;;;;;2.23;1.70;;;16.70;70.00;17.80;99190.00;;;;5070233;28;20204;-50
2022/11/18 06:56:08;;;;;;;2.27;1.80;;;16.70;70.00;17.80;99192.00;;;;5070024;28;20283;-50
2022/11/18 06:58:34;;;;;;;1.90;1.70;;;16.70;70.00;17.80;99195.00;;;;5070820;28;20201;-50
2022/11/18 07:01:22;;;;;;;1.97;1.77;;;16.70;70.10;17.80;99192.00;;;;5070273;28;20158;-52
2022/11/18 07:03:47;;;;;;;2.33;1.70;;;16.70;70.00;17.80;99204.00;;;;5070446;28;20167;-50
2022/11/18 07:06:16;;;;;;;2.87;1.80;;;16.70;70.00;17.80;99199.00;;;;5073565;28;20181;-50
2022/11/18 07:08:42;;;;;;;2.27;1.87;;;16.70;69.90;17.80;99216.00;;;;5082360;28;20189;-50
2022/11/18 07:11:11;;;;;;;2.10;1.60;;;16.70;70.00;17.70;99214.00;;;;5079279;28;20261;-50
2022/11/18 07:13:36;;;;;;;2.40;1.70;;;16.70;70.00;17.70;99224.00;;;;5070072;28;20178;-50
2022/11/18 07:16:07;;;;;;;1.83;1.50;;;16.70;70.00;17.70;99222.00;;;;5071091;28;20569;-50
2022/11/18 07:18:34;;;;;;;2.60;1.57;;;16.60;69.80;17.70;99223.00;;;;5072218;28;20278;-51
2022/11/18 07:21:05;;;;;;;2.30;1.80;;;16.70;70.00;17.70;99230.00;;;;5071177;28;20176;-51
2022/11/18 07:23:31;;;;;;;3.80;1.90;;;16.60;69.80;17.70;99234.00;;;;5070497;28;20155;-51
2022/11/18 07:25:57;;;;;;;2.87;1.50;;;16.60;69.80;17.70;99246.00;;;;5072636;28;20190;-50
2022/11/18 07:28:22;;;;;;;4.30;1.70;;;16.60;69.90;17.70;99245.00;;;;5072464;28;20220;-49
2022/11/18 07:30:48;;;;;;;2.13;1.80;;;16.60;69.80;17.70;99248.00;;;;5070275;28;20228;-50
2022/11/18 07:33:14;;;;;;;2.03;1.60;;;16.60;69.90;17.70;99250.00;;;;5069247;28;20175;-50
2022/11/18 07:35:40;;;;;;;1.67;1.57;;;16.60;69.90;17.60;99246.00;;;;5069824;28;20280;-51
2022/11/18 07:38:05;;;;;;;2.50;1.80;;;16.60;69.80;17.60;99258.00;;;;5069507;28;20646;-50
2022/11/18 07:40:31;;;;;;;2.37;1.50;;;16.50;69.70;17.60;99248.00;;;;5069470;28;20546;-51
2022/11/18 07:42:57;;;;;;;1.83;1.43;;;16.50;69.70;17.60;99263.00;;;;5068925;28;20169;-50
2022/11/18 07:45:23;;;;;;;1.90;1.70;;;16.60;69.90;17.60;99250.00;;;;5069456;28;20198;-49
2022/11/18 07:47:49;;;;;;;2.30;1.67;;;16.60;69.90;17.60;99267.00;;;;5069629;28;20220;-50
2022/11/18 07:50:16;;;;;;;2.10;1.70;;;16.50;69.80;17.60;99270.00;;;;5069108;28;20741;-51
2022/11/18 07:52:42;;;;;;;1.63;1.47;;;16.50;69.80;17.60;99267.00;;;;5068483;28;20637;-50
2022/11/18 07:55:08;;;;;;;1.70;1.60;;;16.50;69.80;17.60;99269.00;;;;5051689;28;20196;-51
2022/11/18 07:57:33;;;;;;;1.73;1.50;;;16.50;69.90;17.60;99270.00;;;;5069275;28;20177;-50
2022/11/18 07:59:59;;;;;;;1.73;1.60;;;16.50;69.90;17.60;99274.00;;;;5069875;28;20193;-51
2022/11/18 08:02:25;;;;;;;1.73;1.50;;;16.50;69.80;17.60;99284.00;;;;5069114;28;20167;-50
2022/11/18 08:04:50;;;;;;;1.97;1.60;;;16.50;69.80;17.60;99292.00;;;;5070040;28;20189;-50
2022/11/18 08:07:16;;;;;;;2.30;1.83;;;16.50;69.90;17.60;99293.00;;;;5070098;28;20234;-52
2022/11/18 08:09:42;;;;;;;2.27;1.67;;;16.50;69.80;17.50;99297.00;;;;5070271;28;20254;-50
2022/11/18 08:12:07;;;;;;;1.50;1.40;;;16.50;69.80;17.60;99297.00;;;;5068663;28;20160;-51
2022/11/18 08:14:33;;;;;;;1.70;1.60;;;16.50;69.80;17.60;99295.00;;;;5068881;28;20235;-51
2022/11/18 08:16:59;;;;;;;1.70;1.60;;;16.50;69.80;17.60;99297.00;;;;5069009;28;20185;-51
2022/11/18 08:19:25;;;;;;;1.53;1.43;;;16.50;69.80;17.60;99299.00;;;;5068554;28;20190;-50
2022/11/18 08:21:50;;;;;;;1.60;1.50;;;16.60;69.80;17.60;99310.00;;;;5068494;28;20165;-50
2022/11/18 08:24:17;;;;;;;1.73;1.50;;;16.60;69.70;17.60;99312.00;;;;5068889;28;20627;-51
2022/11/18 08:26:43;;;;;;;1.70;1.60;;;16.70;69.50;17.70;99313.00;;;;5065184;28;20239;-50
2022/11/18 08:29:08;;;;;;;1.87;1.50;;;16.80;69.50;17.70;99312.00;;;;5068833;28;20186;-50
2022/11/18 08:31:34;;;;;;;6.50;1.80;;;16.80;69.30;17.70;99317.00;;;;5068779;28;20183;-49
2022/11/18 08:34:05;;;;;;;7.90;2.03;;;16.90;69.50;17.80;99318.00;;;;5068809;28;20220;-51
2022/11/18 08:36:32;;;;;;;5.43;1.70;;;16.90;69.30;17.80;99326.00;;;;4986849;28;20189;-51
2022/11/18 08:39:00;;;;;;;2.67;1.60;;;17.00;69.40;17.90;99317.00;;;;5062292;28;20202;-51
2022/11/18 08:41:56;;;;;;;4.87;1.80;;;17.10;69.40;17.90;99315.00;;;;5065755;28;20170;-52
2022/11/18 08:44:22;;;;;;;3.77;1.60;;;17.10;69.80;17.90;99318.00;;;;5032540;28;20543;-51
2022/11/18 08:46:48;;;;;;;4.60;1.57;;;17.10;69.50;17.90;99328.00;;;;5048325;28;20196;-51
2022/11/18 08:49:13;;;;;;;2.23;1.70;;;17.10;69.50;18.00;99328.00;;;;5031126;28;20651;-51
2022/11/18 08:51:39;;;;;;;4.17;1.70;;;17.10;69.50;18.00;99323.00;;;;5047976;28;20627;-51
2022/11/18 08:54:05;;;;;;;3.03;1.80;;;17.20;69.50;18.00;99322.00;;;;5047975;28;20185;-50
2022/11/18 08:56:31;;;;;;;4.83;1.80;;;17.20;69.40;17.90;99332.00;;;;5036783;28;20188;-50
2022/11/18 08:58:56;;;;;;;2.67;1.70;;;17.20;69.40;18.00;99334.00;;;;5030138;28;20226;-51
2022/11/18 09:01:22;;;;;;;7.87;2.00;;;17.10;69.20;18.00;99344.00;;;;5048292;28;20536;-50
2022/11/18 09:03:48;;;;;;;5.40;2.03;;;17.10;69.30;18.00;99341.00;;;;5050780;28;20232;-50
2022/11/18 09:06:19;;;;;;;6.87;2.10;;;17.10;69.90;18.00;99345.00;;;;5051957;28;20591;-50
2022/11/18 09:08:45;;;;;;;6.10;1.80;;;17.10;69.80;18.00;99337.00;;;;5052122;28;20213;-50
2022/11/18 09:11:14;;;;;;;5.27;2.10;;;17.20;69.80;18.10;99341.00;;;;5051685;28;20172;-51
2022/11/18 09:13:39;;;;;;;3.80;1.80;;;17.20;69.50;18.10;99348.00;;;;5051018;28;20187;-50
2022/11/18 09:16:05;;;;;;;4.23;1.70;;;17.20;69.40;18.10;99347.00;;;;5051552;28;20298;-51
2022/11/18 09:18:32;;;;;;;4.60;1.90;;;17.20;69.30;18.10;99357.00;;;;5051459;28;20204;-51
2022/11/18 09:21:06;;;;;;;5.17;1.50;;;17.20;69.20;18.10;99357.00;;;;5051638;28;20171;-51
2022/11/18 09:23:34;;;;;;;3.40;1.90;;;17.30;69.30;18.10;99354.00;;;;5051210;28;20644;-51
2022/11/18 09:26:14;;;;;;;3.40;1.90;;;17.30;70.10;18.20;99362.00;;;;5051739;28;20644;-50
2022/11/18 09:28:40;;;;;;;2.23;1.40;;;17.30;69.30;18.20;99363.00;;;;5051394;28;20650;-52
2022/11/18 09:31:07;;;;;;;3.47;1.80;;;17.30;69.20;18.20;99368.00;;;;5033749;28;20212;-52
2022/11/18 09:33:34;;;;;;;1.50;1.40;;;17.30;69.30;18.20;99364.00;;;;5068031;28;20545;-51
2022/11/18 09:36:00;;;;;;;2.07;1.83;;;17.30;69.30;18.20;99361.00;;;;4953159;28;21864;-51
2022/11/18 09:38:28;;;;;;;2.27;1.70;;;17.30;69.40;18.20;99370.00;;;;5071747;28;20631;-51
2022/11/18 09:41:32;;;;;;;2.40;1.70;;;17.30;69.40;18.20;99375.00;;;;5071070;28;20281;-51
2022/11/18 09:44:41;;;;;;;2.23;1.80;;;17.20;69.20;18.20;99368.00;;;;5053692;28;20162;-50
2022/11/18 09:47:21;;;;;;;2.23;1.63;;;17.30;69.40;18.20;99379.00;;;;5053412;28;20578;-52
2022/11/18 09:49:47;;;;;;;2.67;1.90;;;17.20;69.40;18.20;99385.00;;;;5053357;28;20221;-50
2022/11/18 09:52:23;;;;;;;1.80;1.57;;;17.30;69.40;18.20;99383.00;;;;5052762;28;20174;-50
2022/11/18 09:54:49;;;;;;;4.07;1.80;;;17.30;69.40;18.20;99386.00;;;;5071423;28;20334;-51
2022/11/18 09:57:38;;;;;;;2.43;1.90;;;17.30;69.20;18.20;99389.00;;;;5077837;28;20180;-51
2022/11/18 10:00:18;;;;;;;2.17;1.73;;;17.30;70.00;18.20;99390.00;;;;5071668;28;20259;-51
2022/11/18 10:03:13;;;;;;;1.93;1.70;;;17.30;69.20;18.20;99394.00;;;;5070384;28;20397;-51
2022/11/18 10:06:10;;;;;;;2.23;1.73;;;17.40;69.30;18.20;99398.00;;;;5038516;28;20195;-50
2022/11/18 10:09:01;;;;;;;4.03;1.80;;;17.40;69.30;18.20;99414.00;;;;5049855;28;20186;-51
2022/11/18 10:11:39;;;;;;;2.37;1.70;;;17.30;69.20;18.20;99409.00;;;;5055804;28;20185;-51
2022/11/18 10:14:59;;;;;;;2.83;1.90;;;17.40;69.30;18.20;99410.00;;;;5051821;28;20164;-51
2022/11/18 10:17:43;;;;;;;5.33;1.90;;;17.40;69.40;18.20;99413.00;;;;5066284;28;20256;-50
2022/11/18 10:20:33;;;;;;;5.57;2.10;;;17.30;69.60;18.20;99418.00;;;;5070897;28;20274;-50
2022/11/18 10:23:21;;;;;;;5.63;2.10;;;17.40;69.80;18.20;99406.00;;;;5070132;28;20173;-50
2022/11/18 10:25:47;;;;;;;5.93;1.70;;;17.40;69.80;18.30;99426.00;;;;5045761;28;20201;-51
2022/11/18 10:28:30;;;;;;;4.97;1.83;;;17.40;69.80;18.30;99431.00;;;;5049557;28;20250;-51
2022/11/18 10:31:07;;;;;;;4.03;2.07;;;17.50;70.20;18.30;99417.00;;;;5052357;28;20186;-50
2022/11/18 10:33:33;;;;;;;5.67;2.20;;;17.50;70.40;18.30;99421.00;;;;5035481;28;20700;-50
2022/11/18 10:36:18;;;;;;;4.67;2.10;;;17.50;70.50;18.40;99429.00;;;;4982661;28;22661;-51
2022/11/18 10:38:44;;;;;;;5.47;2.23;;;17.50;70.50;18.40;99438.00;;;;5049414;28;20681;-49
2022/11/18 10:41:15;;;;;;;8.90;2.33;;;17.50;70.60;18.40;99435.00;;;;5050854;28;20640;-51
2022/11/18 10:43:54;;;;;;;3.90;2.00;;;17.60;70.70;18.40;99433.00;;;;5063608;28;20186;-50
2022/11/18 10:46:29;;;;;;;4.60;1.90;;;17.60;71.50;18.40;99432.00;;;;5070593;28;20176;-53
2022/11/18 10:49:21;;;;;;;4.67;1.93;;;17.50;70.70;18.50;99441.00;;;;5071063;28;20190;-50
2022/11/18 10:52:09;;;;;;;4.17;2.10;;;17.60;70.70;18.40;99430.00;;;;5067554;28;20184;-51
2022/11/18 10:54:35;;;;;;;4.07;1.83;;;17.60;70.80;18.50;99441.00;;;;5071520;28;20198;-52
2022/11/18 10:57:20;;;;;;;3.53;2.00;;;17.60;70.90;18.50;99436.00;;;;5049981;28;20177;-52
2022/11/18 10:59:51;;;;;;;5.50;2.20;;;17.60;70.90;18.50;99436.00;;;;5032442;28;20207;-51
2022/11/18 11:02:31;;;;;;;4.17;1.90;;;17.60;70.90;18.50;99441.00;;;;5016358;28;20252;-51
2022/11/18 11:05:18;;;;;;;3.90;2.00;;;17.50;70.80;18.20;99449.00;;;;5030573;28;20197;-51
2022/11/18 11:07:44;;;;;;;3.77;2.00;;;17.50;70.80;18.40;99443.00;;;;5054506;28;20167;-50
2022/11/18 11:10:10;;;;;;;2.93;2.00;;;17.50;71.10;18.50;99444.00;;;;5052773;28;20258;-51
2022/11/18 11:12:46;;;;;;;4.23;2.10;;;17.50;71.00;18.50;99441.00;;;;5070292;28;20225;-51
2022/11/18 11:15:44;;;;;;;7.10;1.90;;;17.50;71.10;18.50;99447.00;;;;5054244;28;20198;-50
2022/11/18 11:18:41;;;;;;;5.10;1.93;;;17.50;71.10;18.50;99453.00;;;;5054546;28;20544;-52
2022/11/18 11:21:17;;;;;;;4.33;1.90;;;17.50;71.30;18.40;99442.00;;;;5053766;28;20199;-52
2022/11/18 11:23:44;;;;;;;5.73;2.20;;;17.50;71.90;18.40;99443.00;;;;5051865;28;20181;-50
2022/11/18 11:26:30;;;;;;;5.57;2.27;;;17.50;71.20;18.40;99439.00;;;;5068927;28;20220;-50
2022/11/18 11:29:53;;;;;;;5.40;2.10;;;17.50;71.30;18.50;99443.00;;;;5051739;28;20252;-50
2022/11/18 11:32:47;;;;;;;3.60;1.83;;;17.50;71.20;18.40;99443.00;;;;5039089;28;20184;-50